sensor_id;sensor_type;location;lat;lon;timestamp;pressure;altitude;pressure_sealevel;temperature;humidity
9289;BME280;4683;50.864;12.086;2022-12-07T00:01:45;99014.78;;;3.70;100.00
9289;BME280;4683;50.864;12.086;2022-12-07T00:04:16;99010.13;;;3.64;100.00
9289;BME280;4683;50.864;12.086;2022-12-07T00:06:50;98998.59;;;3.66;100.00
9289;BME280;4683;50.864;12.086;2022-12-07T00:09:21;99001.91;;;3.68;100.00
9289;BME280;4683;50.864;12.086;2022-12-07T00:11:51;98994.19;;;3.67;100.00
9289;BME280;4683;50.864;12.086;2022-12-07T00:14:21;98994.19;;;3.67;100.00
9289;BME280;4683;50.864;12.086;2022-12-07T00:16:50;98984.19;;;3.52;100.00
9289;BME280;4683;50.864;12.086;2022-12-07T00:19:19;98987.63;;;3.43;100.00
9289;BME280;4683;50.864;12.086;2022-12-07T00:21:47;98988.44;;;3.34;100.00
9289;BME280;4683;50.864;12.086;2022-12-07T00:24:16;98973.34;;;3.28;100.00
9289;BME280;4683;50.864;12.086;2022-12-07T00:26:46;98979.91;;;3.03;100.00
9289;BME280;4683;50.864;12.086;2022-12-07T00:29:18;98969.84;;;2.89;100.00
9289;BME280;4683;50.864;12.086;2022-12-07T00:31:48;98963.25;;;2.75;100.00
9289;BME280;4683;50.864;12.086;2022-12-07T00:34:19;98967.31;;;2.58;100.00
9289;BME280;4683;50.864;12.086;2022-12-07T00:36:48;98960.59;;;2.56;100.00
9289;BME280;4683;50.864;12.086;2022-12-07T00:39:18;98961.28;;;2.58;100.00
9289;BME280;4683;50.864;12.086;2022-12-07T00:41:48;98968.97;;;2.59;100.00
9289;BME280;4683;50.864;12.086;2022-12-07T00:44:16;98966.44;;;2.48;100.00
9289;BME280;4683;50.864;12.086;2022-12-07T00:46:45;98963.03;;;2.47;100.00
9289;BME280;4683;50.864;12.086;2022-12-07T00:49:13;98962.78;;;2.50;100.00
9289;BME280;4683;50.864;12.086;2022-12-07T00:51:44;98960.28;;;2.49;100.00
9289;BME280;4683;50.864;12.086;2022-12-07T00:54:12;98953.97;;;2.42;100.00
9289;BME280;4683;50.864;12.086;2022-12-07T00:56:41;98955.19;;;2.38;100.00
9289;BME280;4683;50.864;12.086;2022-12-07T00:59:13;98950.94;;;2.37;100.00
9289;BME280;4683;50.864;12.086;2022-12-07T01:01:43;98953.81;;;2.34;100.00
9289;BME280;4683;50.864;12.086;2022-12-07T01:04:11;98956.16;;;2.37;100.00
9289;BME280;4683;50.864;12.086;2022-12-07T01:06:40;98954.63;;;2.34;100.00
9289;BME280;4683;50.864;12.086;2022-12-07T01:09:09;98948.84;;;2.31;100.00
9289;BME280;4683;50.864;12.086;2022-12-07T01:11:39;98943.78;;;2.29;100.00
9289;BME280;4683;50.864;12.086;2022-12-07T01:14:08;98932.41;;;2.30;100.00
9289;BME280;4683;50.864;12.086;2022-12-07T01:16:39;98941.31;;;2.27;100.00
9289;BME280;4683;50.864;12.086;2022-12-07T01:19:07;98933.66;;;2.36;100.00
9289;BME280;4683;50.864;12.086;2022-12-07T01:21:36;98949.56;;;2.33;100.00
9289;BME280;4683;50.864;12.086;2022-12-07T01:24:06;98950.06;;;2.26;100.00
9289;BME280;4683;50.864;12.086;2022-12-07T01:26:35;98938.25;;;2.22;100.00
9289;BME280;4683;50.864;12.086;2022-12-07T01:29:03;98934.03;;;2.21;100.00
9289;BME280;4683;50.864;12.086;2022-12-07T01:31:32;98938.16;;;2.24;100.00
9289;BME280;4683;50.864;12.086;2022-12-07T01:34:02;98925.66;;;2.18;100.00
9289;BME280;4683;50.864;12.086;2022-12-07T01:36:32;98931.38;;;2.12;100.00
9289;BME280;4683;50.864;12.086;2022-12-07T01:39:04;98929.41;;;2.04;100.00
9289;BME280;4683;50.864;12.086;2022-12-07T01:41:36;98929.31;;;2.06;100.00
9289;BME280;4683;50.864;12.086;2022-12-07T01:44:16;98939.72;;;2.06;100.00
9289;BME280;4683;50.864;12.086;2022-12-07T01:46:46;98939.56;;;2.07;100.00
9289;BME280;4683;50.864;12.086;2022-12-07T01:49:24;98948.00;;;1.99;100.00
9289;BME280;4683;50.864;12.086;2022-12-07T01:52:12;98936.78;;;1.99;100.00
9289;BME280;4683;50.864;12.086;2022-12-07T01:54:42;98952.34;;;2.10;100.00
9289;BME280;4683;50.864;12.086;2022-12-07T01:57:13;98946.53;;;2.27;100.00
9289;BME280;4683;50.864;12.086;2022-12-07T01:59:43;98946.25;;;2.31;100.00
9289;BME280;4683;50.864;12.086;2022-12-07T02:02:19;98943.16;;;2.46;100.00
9289;BME280;4683;50.864;12.086;2022-12-07T02:04:51;98931.84;;;2.76;100.00
9289;BME280;4683;50.864;12.086;2022-12-07T02:07:21;98929.16;;;2.88;100.00
9289;BME280;4683;50.864;12.086;2022-12-07T02:09:51;98926.81;;;2.85;100.00
9289;BME280;4683;50.864;12.086;2022-12-07T02:12:20;98929.56;;;2.83;100.00
9289;BME280;4683;50.864;12.086;2022-12-07T02:14:50;98917.91;;;2.77;100.00
9289;BME280;4683;50.864;12.086;2022-12-07T02:17:25;98912.16;;;2.84;100.00
9289;BME280;4683;50.864;12.086;2022-12-07T02:20:19;98907.75;;;2.74;100.00
9289;BME280;4683;50.864;12.086;2022-12-07T02:23:40;98909.38;;;2.66;100.00
9289;BME280;4683;50.864;12.086;2022-12-07T02:29:32;98907.72;;;2.55;100.00
9289;BME280;4683;50.864;12.086;2022-12-07T02:32:07;98900.97;;;2.52;100.00
9289;BME280;4683;50.864;12.086;2022-12-07T02:34:48;98900.47;;;2.68;100.00
9289;BME280;4683;50.864;12.086;2022-12-07T02:37:29;98891.31;;;2.74;100.00
9289;BME280;4683;50.864;12.086;2022-12-07T02:40:09;98897.09;;;2.27;100.00
9289;BME280;4683;50.864;12.086;2022-12-07T02:42:42;98898.69;;;1.88;100.00
9289;BME280;4683;50.864;12.086;2022-12-07T02:45:18;98895.44;;;1.65;100.00
9289;BME280;4683;50.864;12.086;2022-12-07T02:47:51;98894.47;;;1.66;100.00
9289;BME280;4683;50.864;12.086;2022-12-07T02:50:21;98889.03;;;1.69;100.00
9289;BME280;4683;50.864;12.086;2022-12-07T02:52:49;98887.72;;;1.85;100.00
9289;BME280;4683;50.864;12.086;2022-12-07T02:55:23;98887.16;;;1.81;100.00
9289;BME280;4683;50.864;12.086;2022-12-07T02:58:17;98878.47;;;1.92;100.00
9289;BME280;4683;50.864;12.086;2022-12-07T03:00:58;98881.09;;;2.01;100.00
9289;BME280;4683;50.864;12.086;2022-12-07T03:03:30;98885.91;;;1.75;100.00
9289;BME280;4683;50.864;12.086;2022-12-07T03:06:09;98873.38;;;1.60;100.00
9289;BME280;4683;50.864;12.086;2022-12-07T03:08:50;98882.69;;;1.62;100.00
9289;BME280;4683;50.864;12.086;2022-12-07T03:11:27;98885.72;;;1.67;100.00
9289;BME280;4683;50.864;12.086;2022-12-07T03:14:02;98880.56;;;1.77;100.00
9289;BME280;4683;50.864;12.086;2022-12-07T03:16:43;98877.47;;;1.83;100.00
9289;BME280;4683;50.864;12.086;2022-12-07T03:19:15;98867.59;;;2.17;100.00
9289;BME280;4683;50.864;12.086;2022-12-07T03:21:51;98861.50;;;2.38;100.00
9289;BME280;4683;50.864;12.086;2022-12-07T03:24:26;98859.47;;;2.51;100.00
9289;BME280;4683;50.864;12.086;2022-12-07T03:27:01;98853.16;;;2.63;100.00
9289;BME280;4683;50.864;12.086;2022-12-07T03:29:35;98852.50;;;2.61;100.00
9289;BME280;4683;50.864;12.086;2022-12-07T03:32:10;98847.13;;;2.53;100.00
9289;BME280;4683;50.864;12.086;2022-12-07T03:34:47;98852.06;;;2.46;100.00
9289;BME280;4683;50.864;12.086;2022-12-07T03:37:22;98841.34;;;2.40;100.00
9289;BME280;4683;50.864;12.086;2022-12-07T03:40:02;98845.19;;;2.36;100.00
9289;BME280;4683;50.864;12.086;2022-12-07T03:42:34;98849.44;;;2.37;100.00
9289;BME280;4683;50.864;12.086;2022-12-07T03:45:04;98839.84;;;2.37;100.00
9289;BME280;4683;50.864;12.086;2022-12-07T03:47:42;98844.09;;;2.38;100.00
9289;BME280;4683;50.864;12.086;2022-12-07T03:50:19;98842.16;;;2.40;100.00
9289;BME280;4683;50.864;12.086;2022-12-07T03:52:55;98831.50;;;2.43;100.00
9289;BME280;4683;50.864;12.086;2022-12-07T03:55:28;98835.63;;;2.46;100.00
9289;BME280;4683;50.864;12.086;2022-12-07T03:58:01;98831.81;;;2.50;100.00
9289;BME280;4683;50.864;12.086;2022-12-07T04:00:31;98826.88;;;2.57;100.00
9289;BME280;4683;50.864;12.086;2022-12-07T04:03:02;98822.47;;;2.57;100.00
9289;BME280;4683;50.864;12.086;2022-12-07T04:05:30;98829.06;;;2.61;100.00
9289;BME280;4683;50.864;12.086;2022-12-07T04:07:58;98818.78;;;2.69;100.00
9289;BME280;4683;50.864;12.086;2022-12-07T04:10:27;98817.97;;;2.78;100.00
9289;BME280;4683;50.864;12.086;2022-12-07T04:12:55;98824.25;;;2.86;100.00
9289;BME280;4683;50.864;12.086;2022-12-07T04:15:23;98817.81;;;2.90;100.00
9289;BME280;4683;50.864;12.086;2022-12-07T04:17:52;98823.59;;;2.93;100.00
9289;BME280;4683;50.864;12.086;2022-12-07T04:20:23;98827.69;;;3.05;100.00
9289;BME280;4683;50.864;12.086;2022-12-07T04:22:51;98831.94;;;3.16;100.00
9289;BME280;4683;50.864;12.086;2022-12-07T04:25:20;98838.91;;;3.25;100.00
9289;BME280;4683;50.864;12.086;2022-12-07T04:27:49;98834.91;;;3.31;100.00
9289;BME280;4683;50.864;12.086;2022-12-07T04:30:17;98838.75;;;3.27;100.00
9289;BME280;4683;50.864;12.086;2022-12-07T04:32:46;98829.81;;;3.39;100.00
9289;BME280;4683;50.864;12.086;2022-12-07T04:35:14;98830.81;;;3.28;100.00
9289;BME280;4683;50.864;12.086;2022-12-07T04:37:46;98829.59;;;3.13;100.00
9289;BME280;4683;50.864;12.086;2022-12-07T04:40:14;98826.03;;;2.85;100.00
9289;BME280;4683;50.864;12.086;2022-12-07T04:42:42;98819.47;;;2.71;100.00
9289;BME280;4683;50.864;12.086;2022-12-07T04:45:11;98821.94;;;2.63;100.00
9289;BME280;4683;50.864;12.086;2022-12-07T04:47:39;98814.13;;;2.63;100.00
9289;BME280;4683;50.864;12.086;2022-12-07T04:50:09;98813.28;;;2.53;100.00
9289;BME280;4683;50.864;12.086;2022-12-07T04:52:37;98800.28;;;2.53;100.00
9289;BME280;4683;50.864;12.086;2022-12-07T04:55:08;98803.44;;;2.57;100.00
9289;BME280;4683;50.864;12.086;2022-12-07T04:57:36;98796.31;;;2.59;100.00
9289;BME280;4683;50.864;12.086;2022-12-07T05:00:07;98790.56;;;2.55;100.00
9289;BME280;4683;50.864;12.086;2022-12-07T05:02:37;98798.38;;;2.55;100.00
9289;BME280;4683;50.864;12.086;2022-12-07T05:05:06;98791.50;;;2.54;100.00
9289;BME280;4683;50.864;12.086;2022-12-07T05:07:34;98786.72;;;2.59;100.00
9289;BME280;4683;50.864;12.086;2022-12-07T05:10:04;98783.69;;;3.02;100.00
9289;BME280;4683;50.864;12.086;2022-12-07T05:12:33;98790.34;;;3.34;100.00
9289;BME280;4683;50.864;12.086;2022-12-07T05:15:02;98791.66;;;3.48;100.00
9289;BME280;4683;50.864;12.086;2022-12-07T05:17:31;98797.91;;;3.27;100.00
9289;BME280;4683;50.864;12.086;2022-12-07T05:20:00;98796.41;;;3.15;100.00
9289;BME280;4683;50.864;12.086;2022-12-07T05:22:28;98800.00;;;2.95;100.00
9289;BME280;4683;50.864;12.086;2022-12-07T05:24:56;98803.16;;;2.89;100.00
9289;BME280;4683;50.864;12.086;2022-12-07T05:27:24;98804.81;;;2.90;100.00
9289;BME280;4683;50.864;12.086;2022-12-07T05:29:54;98793.16;;;2.94;100.00
9289;BME280;4683;50.864;12.086;2022-12-07T05:32:25;98789.16;;;2.90;100.00
9289;BME280;4683;50.864;12.086;2022-12-07T05:34:54;98792.06;;;2.87;100.00
9289;BME280;4683;50.864;12.086;2022-12-07T05:37:23;98786.88;;;2.87;100.00
9289;BME280;4683;50.864;12.086;2022-12-07T05:39:52;98779.59;;;3.00;100.00
9289;BME280;4683;50.864;12.086;2022-12-07T05:42:22;98791.22;;;3.05;100.00
9289;BME280;4683;50.864;12.086;2022-12-07T05:44:50;98783.97;;;3.09;100.00
9289;BME280;4683;50.864;12.086;2022-12-07T05:47:21;98789.00;;;3.11;100.00
9289;BME280;4683;50.864;12.086;2022-12-07T05:49:49;98784.50;;;3.03;100.00
9289;BME280;4683;50.864;12.086;2022-12-07T05:52:18;98784.50;;;2.93;100.00
9289;BME280;4683;50.864;12.086;2022-12-07T05:54:46;98791.25;;;2.96;100.00
9289;BME280;4683;50.864;12.086;2022-12-07T05:57:17;98791.88;;;3.17;100.00
9289;BME280;4683;50.864;12.086;2022-12-07T05:59:45;98787.78;;;3.15;100.00
9289;BME280;4683;50.864;12.086;2022-12-07T06:02:14;98795.31;;;3.08;100.00
9289;BME280;4683;50.864;12.086;2022-12-07T06:04:46;98785.19;;;3.05;100.00
9289;BME280;4683;50.864;12.086;2022-12-07T06:07:16;98782.59;;;3.05;100.00
9289;BME280;4683;50.864;12.086;2022-12-07T06:09:50;98788.19;;;3.10;100.00
9289;BME280;4683;50.864;12.086;2022-12-07T06:12:20;98782.00;;;3.21;100.00
9289;BME280;4683;50.864;12.086;2022-12-07T06:15:07;98778.84;;;3.17;100.00
9289;BME280;4683;50.864;12.086;2022-12-07T06:17:36;98788.72;;;3.23;100.00
9289;BME280;4683;50.864;12.086;2022-12-07T06:20:07;98785.94;;;3.35;100.00
9289;BME280;4683;50.864;12.086;2022-12-07T06:22:36;98788.94;;;3.40;100.00
9289;BME280;4683;50.864;12.086;2022-12-07T06:25:05;98790.31;;;3.44;100.00
9289;BME280;4683;50.864;12.086;2022-12-07T06:27:34;98785.63;;;3.47;100.00
9289;BME280;4683;50.864;12.086;2022-12-07T06:30:03;98792.78;;;3.45;100.00
9289;BME280;4683;50.864;12.086;2022-12-07T06:32:33;98787.81;;;3.52;100.00
9289;BME280;4683;50.864;12.086;2022-12-07T06:35:01;98794.66;;;3.53;100.00
9289;BME280;4683;50.864;12.086;2022-12-07T06:37:31;98793.31;;;3.49;100.00
9289;BME280;4683;50.864;12.086;2022-12-07T06:39:59;98792.06;;;3.53;100.00
9289;BME280;4683;50.864;12.086;2022-12-07T06:42:30;98791.38;;;3.51;100.00
9289;BME280;4683;50.864;12.086;2022-12-07T06:44:59;98796.50;;;3.43;100.00
9289;BME280;4683;50.864;12.086;2022-12-07T06:47:27;98793.09;;;3.33;100.00
9289;BME280;4683;50.864;12.086;2022-12-07T06:49:56;98792.47;;;3.48;100.00
9289;BME280;4683;50.864;12.086;2022-12-07T06:52:25;98798.28;;;3.42;100.00
9289;BME280;4683;50.864;12.086;2022-12-07T06:54:55;98796.34;;;3.44;100.00
9289;BME280;4683;50.864;12.086;2022-12-07T06:57:26;98811.16;;;3.44;100.00
9289;BME280;4683;50.864;12.086;2022-12-07T06:59:55;98804.53;;;3.49;100.00
9289;BME280;4683;50.864;12.086;2022-12-07T07:02:24;98817.75;;;3.48;100.00
9289;BME280;4683;50.864;12.086;2022-12-07T07:04:53;98820.22;;;3.40;100.00
9289;BME280;4683;50.864;12.086;2022-12-07T07:07:21;98812.78;;;3.45;100.00
9289;BME280;4683;50.864;12.086;2022-12-07T07:09:50;98811.56;;;3.49;100.00
9289;BME280;4683;50.864;12.086;2022-12-07T07:12:19;98814.97;;;3.59;100.00
9289;BME280;4683;50.864;12.086;2022-12-07T07:14:47;98821.25;;;3.66;100.00
9289;BME280;4683;50.864;12.086;2022-12-07T07:17:15;98823.78;;;3.86;100.00
9289;BME280;4683;50.864;12.086;2022-12-07T07:19:46;98824.09;;;3.83;100.00
9289;BME280;4683;50.864;12.086;2022-12-07T07:22:14;98825.06;;;3.72;100.00
9289;BME280;4683;50.864;12.086;2022-12-07T07:24:42;98825.75;;;3.74;100.00
9289;BME280;4683;50.864;12.086;2022-12-07T07:27:12;98833.84;;;3.71;100.00
9289;BME280;4683;50.864;12.086;2022-12-07T07:29:42;98833.72;;;3.72;100.00
9289;BME280;4683;50.864;12.086;2022-12-07T07:32:10;98831.31;;;3.89;100.00
9289;BME280;4683;50.864;12.086;2022-12-07T07:34:40;98835.25;;;4.02;100.00
9289;BME280;4683;50.864;12.086;2022-12-07T07:37:08;98835.28;;;4.20;100.00
9289;BME280;4683;50.864;12.086;2022-12-07T07:39:37;98836.50;;;4.26;100.00
9289;BME280;4683;50.864;12.086;2022-12-07T07:42:06;98841.50;;;4.19;100.00
9289;BME280;4683;50.864;12.086;2022-12-07T07:44:35;98835.63;;;4.35;100.00
9289;BME280;4683;50.864;12.086;2022-12-07T07:47:05;98831.44;;;4.24;100.00
9289;BME280;4683;50.864;12.086;2022-12-07T07:49:33;98832.91;;;4.09;100.00
9289;BME280;4683;50.864;12.086;2022-12-07T07:52:02;98821.09;;;4.05;100.00
9289;BME280;4683;50.864;12.086;2022-12-07T07:54:31;98829.38;;;4.00;100.00
9289;BME280;4683;50.864;12.086;2022-12-07T07:56:59;98821.47;;;3.83;100.00
9289;BME280;4683;50.864;12.086;2022-12-07T07:59:28;98829.72;;;3.78;100.00
9289;BME280;4683;50.864;12.086;2022-12-07T08:01:57;98830.88;;;3.56;100.00
9289;BME280;4683;50.864;12.086;2022-12-07T08:04:27;98828.28;;;3.56;100.00
9289;BME280;4683;50.864;12.086;2022-12-07T08:06:56;98827.31;;;3.57;100.00
9289;BME280;4683;50.864;12.086;2022-12-07T08:09:27;98833.09;;;3.51;100.00
9289;BME280;4683;50.864;12.086;2022-12-07T08:11:56;98837.75;;;3.57;100.00
9289;BME280;4683;50.864;12.086;2022-12-07T08:14:25;98830.72;;;3.67;100.00
9289;BME280;4683;50.864;12.086;2022-12-07T08:16:55;98828.50;;;3.72;100.00
9289;BME280;4683;50.864;12.086;2022-12-07T08:19:24;98842.03;;;3.86;100.00
9289;BME280;4683;50.864;12.086;2022-12-07T08:21:55;98835.06;;;3.86;100.00
9289;BME280;4683;50.864;12.086;2022-12-07T08:24:24;98832.88;;;3.81;100.00
9289;BME280;4683;50.864;12.086;2022-12-07T08:26:52;98838.59;;;3.85;100.00
9289;BME280;4683;50.864;12.086;2022-12-07T08:29:21;98838.50;;;3.87;100.00
9289;BME280;4683;50.864;12.086;2022-12-07T08:31:49;98835.53;;;3.99;100.00
9289;BME280;4683;50.864;12.086;2022-12-07T08:34:18;98828.66;;;3.98;100.00
9289;BME280;4683;50.864;12.086;2022-12-07T08:36:46;98823.50;;;4.16;100.00
9289;BME280;4683;50.864;12.086;2022-12-07T08:39:16;98827.63;;;4.19;100.00
9289;BME280;4683;50.864;12.086;2022-12-07T08:41:44;98828.19;;;4.13;100.00
9289;BME280;4683;50.864;12.086;2022-12-07T08:44:13;98828.44;;;4.19;100.00
9289;BME280;4683;50.864;12.086;2022-12-07T08:46:45;98829.97;;;4.40;100.00
9289;BME280;4683;50.864;12.086;2022-12-07T08:49:18;98833.91;;;4.44;100.00
9289;BME280;4683;50.864;12.086;2022-12-07T08:51:47;98836.25;;;4.47;100.00
9289;BME280;4683;50.864;12.086;2022-12-07T08:54:20;98830.41;;;4.53;100.00
9289;BME280;4683;50.864;12.086;2022-12-07T08:56:50;98829.16;;;4.57;100.00
9289;BME280;4683;50.864;12.086;2022-12-07T08:59:21;98828.81;;;4.88;100.00
9289;BME280;4683;50.864;12.086;2022-12-07T09:01:52;98832.31;;;4.96;100.00
9289;BME280;4683;50.864;12.086;2022-12-07T09:04:22;98830.50;;;4.97;100.00
9289;BME280;4683;50.864;12.086;2022-12-07T09:06:51;98829.00;;;4.94;100.00
9289;BME280;4683;50.864;12.086;2022-12-07T09:09:20;98834.16;;;5.04;100.00
9289;BME280;4683;50.864;12.086;2022-12-07T09:11:49;98834.31;;;4.84;100.00
9289;BME280;4683;50.864;12.086;2022-12-07T09:14:17;98833.41;;;4.76;100.00
9289;BME280;4683;50.864;12.086;2022-12-07T09:16:46;98835.00;;;4.69;100.00
9289;BME280;4683;50.864;12.086;2022-12-07T09:19:16;98839.47;;;4.76;100.00
9289;BME280;4683;50.864;12.086;2022-12-07T09:21:44;98835.50;;;4.72;100.00
9289;BME280;4683;50.864;12.086;2022-12-07T09:24:14;98834.94;;;4.78;100.00
9289;BME280;4683;50.864;12.086;2022-12-07T09:26:44;98841.72;;;4.89;100.00
9289;BME280;4683;50.864;12.086;2022-12-07T09:29:13;98838.00;;;4.92;100.00
9289;BME280;4683;50.864;12.086;2022-12-07T09:31:41;98841.50;;;4.82;100.00
9289;BME280;4683;50.864;12.086;2022-12-07T09:34:13;98845.94;;;4.72;100.00
9289;BME280;4683;50.864;12.086;2022-12-07T09:36:45;98840.00;;;4.80;100.00
9289;BME280;4683;50.864;12.086;2022-12-07T09:39:14;98833.75;;;4.91;100.00
9289;BME280;4683;50.864;12.086;2022-12-07T09:41:45;98833.88;;;4.71;100.00
9289;BME280;4683;50.864;12.086;2022-12-07T09:44:20;98837.28;;;4.72;100.00
9289;BME280;4683;50.864;12.086;2022-12-07T09:46:49;98831.94;;;4.73;100.00
9289;BME280;4683;50.864;12.086;2022-12-07T09:49:21;98843.13;;;4.83;100.00
9289;BME280;4683;50.864;12.086;2022-12-07T09:52:02;98827.59;;;5.00;100.00
9289;BME280;4683;50.864;12.086;2022-12-07T09:54:47;98830.69;;;4.95;100.00
9289;BME280;4683;50.864;12.086;2022-12-07T09:57:27;98819.78;;;4.82;100.00
9289;BME280;4683;50.864;12.086;2022-12-07T10:00:06;98817.00;;;4.83;100.00
9289;BME280;4683;50.864;12.086;2022-12-07T10:02:38;98825.13;;;4.80;100.00
9289;BME280;4683;50.864;12.086;2022-12-07T10:05:14;98818.88;;;4.91;100.00
9289;BME280;4683;50.864;12.086;2022-12-07T10:07:43;98818.72;;;4.93;100.00
9289;BME280;4683;50.864;12.086;2022-12-07T10:10:17;98819.38;;;4.95;100.00
9289;BME280;4683;50.864;12.086;2022-12-07T10:13:00;98812.59;;;5.02;100.00
9289;BME280;4683;50.864;12.086;2022-12-07T10:15:52;98810.63;;;5.04;100.00
9289;BME280;4683;50.864;12.086;2022-12-07T10:18:29;98812.94;;;5.07;100.00
9289;BME280;4683;50.864;12.086;2022-12-07T10:21:26;98808.84;;;5.22;100.00
9289;BME280;4683;50.864;12.086;2022-12-07T10:24:05;98801.34;;;5.27;100.00
9289;BME280;4683;50.864;12.086;2022-12-07T10:26:51;98798.91;;;5.34;100.00
9289;BME280;4683;50.864;12.086;2022-12-07T10:29:27;98797.81;;;5.37;100.00
9289;BME280;4683;50.864;12.086;2022-12-07T10:32:00;98808.81;;;5.48;100.00
9289;BME280;4683;50.864;12.086;2022-12-07T10:34:32;98801.34;;;5.27;100.00
9289;BME280;4683;50.864;12.086;2022-12-07T10:37:17;98812.53;;;5.38;100.00
9289;BME280;4683;50.864;12.086;2022-12-07T10:39:50;98803.91;;;5.19;100.00
9289;BME280;4683;50.864;12.086;2022-12-07T10:42:20;98802.00;;;5.29;100.00
9289;BME280;4683;50.864;12.086;2022-12-07T10:45:13;98807.22;;;5.29;100.00
9289;BME280;4683;50.864;12.086;2022-12-07T10:47:48;98800.78;;;5.42;100.00
9289;BME280;4683;50.864;12.086;2022-12-07T10:50:49;98801.19;;;5.29;100.00
9289;BME280;4683;50.864;12.086;2022-12-07T10:53:42;98798.09;;;5.33;100.00
9289;BME280;4683;50.864;12.086;2022-12-07T10:56:37;98794.69;;;5.33;100.00
9289;BME280;4683;50.864;12.086;2022-12-07T10:59:39;98787.44;;;5.53;100.00
9289;BME280;4683;50.864;12.086;2022-12-07T11:02:41;98794.66;;;5.59;100.00
9289;BME280;4683;50.864;12.086;2022-12-07T11:05:27;98791.38;;;5.57;100.00
9289;BME280;4683;50.864;12.086;2022-12-07T11:08:05;98795.31;;;5.61;100.00
9289;BME280;4683;50.864;12.086;2022-12-07T11:11:02;98794.44;;;5.52;100.00
9289;BME280;4683;50.864;12.086;2022-12-07T11:13:48;98792.88;;;5.59;100.00
9289;BME280;4683;50.864;12.086;2022-12-07T11:16:34;98800.66;;;5.51;100.00
9289;BME280;4683;50.864;12.086;2022-12-07T11:19:32;98793.00;;;5.50;100.00
9289;BME280;4683;50.864;12.086;2022-12-07T11:22:09;98796.31;;;5.60;100.00
9289;BME280;4683;50.864;12.086;2022-12-07T11:24:48;98793.34;;;5.63;100.00
9289;BME280;4683;50.864;12.086;2022-12-07T11:27:27;98792.28;;;5.74;100.00
9289;BME280;4683;50.864;12.086;2022-12-07T11:30:13;98790.44;;;5.66;100.00
9289;BME280;4683;50.864;12.086;2022-12-07T11:33:06;98788.97;;;5.64;100.00
9289;BME280;4683;50.864;12.086;2022-12-07T11:35:50;98781.03;;;5.81;100.00
9289;BME280;4683;50.864;12.086;2022-12-07T11:38:26;98782.59;;;5.66;100.00
9289;BME280;4683;50.864;12.086;2022-12-07T11:41:03;98791.13;;;5.76;100.00
9289;BME280;4683;50.864;12.086;2022-12-07T11:43:56;98772.34;;;5.81;100.00
9289;BME280;4683;50.864;12.086;2022-12-07T11:46:43;98770.19;;;5.68;100.00
9289;BME280;4683;50.864;12.086;2022-12-07T11:49:20;98775.34;;;5.86;100.00
9289;BME280;4683;50.864;12.086;2022-12-07T11:51:56;98774.91;;;5.99;100.00
9289;BME280;4683;50.864;12.086;2022-12-07T11:54:30;98776.59;;;6.16;100.00
9289;BME280;4683;50.864;12.086;2022-12-07T11:57:10;98766.81;;;6.18;100.00
9289;BME280;4683;50.864;12.086;2022-12-07T11:59:46;98767.97;;;6.32;100.00
9289;BME280;4683;50.864;12.086;2022-12-07T12:02:24;98754.69;;;6.25;100.00
9289;BME280;4683;50.864;12.086;2022-12-07T12:04:59;98761.72;;;6.17;100.00
9289;BME280;4683;50.864;12.086;2022-12-07T12:07:32;98759.53;;;6.04;100.00
9289;BME280;4683;50.864;12.086;2022-12-07T12:10:06;98766.78;;;6.10;100.00
9289;BME280;4683;50.864;12.086;2022-12-07T12:13:04;98748.09;;;6.13;100.00
9289;BME280;4683;50.864;12.086;2022-12-07T12:15:51;98745.88;;;6.34;100.00
9289;BME280;4683;50.864;12.086;2022-12-07T12:21:36;98743.22;;;6.26;100.00
9289;BME280;4683;50.864;12.086;2022-12-07T12:24:14;98737.00;;;6.19;100.00
9289;BME280;4683;50.864;12.086;2022-12-07T12:26:51;98745.84;;;6.18;100.00
9289;BME280;4683;50.864;12.086;2022-12-07T12:29:26;98742.56;;;6.16;100.00
9289;BME280;4683;50.864;12.086;2022-12-07T12:32:14;98739.66;;;6.27;100.00
9289;BME280;4683;50.864;12.086;2022-12-07T12:35:17;98740.63;;;6.18;100.00
9289;BME280;4683;50.864;12.086;2022-12-07T12:37:54;98744.22;;;6.33;100.00
9289;BME280;4683;50.864;12.086;2022-12-07T12:40:44;98735.56;;;6.41;100.00
9289;BME280;4683;50.864;12.086;2022-12-07T12:43:45;98729.50;;;6.24;100.00
9289;BME280;4683;50.864;12.086;2022-12-07T12:46:50;98727.19;;;6.21;100.00
9289;BME280;4683;50.864;12.086;2022-12-07T12:49:43;98731.13;;;6.33;100.00
9289;BME280;4683;50.864;12.086;2022-12-07T12:52:49;98724.59;;;6.38;100.00
9289;BME280;4683;50.864;12.086;2022-12-07T12:58:41;98726.31;;;5.96;100.00
9289;BME280;4683;50.864;12.086;2022-12-07T13:01:46;98721.59;;;6.00;100.00
9289;BME280;4683;50.864;12.086;2022-12-07T13:04:53;98729.25;;;5.93;100.00
9289;BME280;4683;50.864;12.086;2022-12-07T13:07:58;98724.03;;;6.01;100.00
9289;BME280;4683;50.864;12.086;2022-12-07T13:10:40;98723.72;;;6.04;100.00
9289;BME280;4683;50.864;12.086;2022-12-07T13:13:35;98733.69;;;6.01;100.00
9289;BME280;4683;50.864;12.086;2022-12-07T13:16:39;98727.44;;;5.94;100.00
9289;BME280;4683;50.864;12.086;2022-12-07T13:19:53;98735.59;;;5.91;100.00
9289;BME280;4683;50.864;12.086;2022-12-07T13:22:53;98726.78;;;5.92;100.00
9289;BME280;4683;50.864;12.086;2022-12-07T13:25:45;98712.41;;;6.04;100.00
9289;BME280;4683;50.864;12.086;2022-12-07T13:28:18;98714.69;;;5.99;100.00
9289;BME280;4683;50.864;12.086;2022-12-07T13:31:18;98716.84;;;5.95;100.00
9289;BME280;4683;50.864;12.086;2022-12-07T13:33:48;98709.06;;;5.85;100.00
9289;BME280;4683;50.864;12.086;2022-12-07T13:36:22;98719.19;;;5.72;100.00
9289;BME280;4683;50.864;12.086;2022-12-07T13:38:56;98715.59;;;5.73;100.00
9289;BME280;4683;50.864;12.086;2022-12-07T13:41:26;98722.31;;;5.84;100.00
9289;BME280;4683;50.864;12.086;2022-12-07T13:44:02;98721.31;;;5.77;100.00
9289;BME280;4683;50.864;12.086;2022-12-07T13:46:47;98717.94;;;5.50;100.00
9289;BME280;4683;50.864;12.086;2022-12-07T13:49:22;98724.28;;;5.48;100.00
9289;BME280;4683;50.864;12.086;2022-12-07T13:51:52;98728.63;;;5.31;100.00
9289;BME280;4683;50.864;12.086;2022-12-07T13:54:24;98746.38;;;5.19;100.00
9289;BME280;4683;50.864;12.086;2022-12-07T13:56:53;98737.19;;;5.15;100.00
9289;BME280;4683;50.864;12.086;2022-12-07T13:59:23;98728.88;;;4.94;100.00